sensor_id;sensor_type;location;lat;lon;timestamp;P1;durP1;ratioP1;P2;durP2;ratioP2
51943;SDS011;37969;53.132;6.370;2022-11-15T00:02:24;40.33;;;28.67;;
51943;SDS011;37969;53.132;6.370;2022-11-15T00:04:50;41.28;;;28.77;;
51943;SDS011;37969;53.132;6.370;2022-11-15T00:07:16;44.05;;;29.58;;
51943;SDS011;37969;53.132;6.370;2022-11-15T00:09:42;43.13;;;29.45;;
51943;SDS011;37969;53.132;6.370;2022-11-15T00:12:08;43.90;;;29.35;;
51943;SDS011;37969;53.132;6.370;2022-11-15T00:14:35;42.92;;;29.35;;
51943;SDS011;37969;53.132;6.370;2022-11-15T00:17:01;40.90;;;28.27;;
51943;SDS011;37969;53.132;6.370;2022-11-15T00:19:27;45.85;;;31.33;;
51943;SDS011;37969;53.132;6.370;2022-11-15T00:21:53;41.05;;;28.50;;
51943;SDS011;37969;53.132;6.370;2022-11-15T00:24:19;44.10;;;30.10;;
51943;SDS011;37969;53.132;6.370;2022-11-15T00:26:45;43.17;;;29.83;;
51943;SDS011;37969;53.132;6.370;2022-11-15T00:29:11;44.28;;;30.40;;
51943;SDS011;37969;53.132;6.370;2022-11-15T00:31:38;46.75;;;31.55;;
51943;SDS011;37969;53.132;6.370;2022-11-15T00:34:04;42.25;;;29.67;;
51943;SDS011;37969;53.132;6.370;2022-11-15T00:36:32;43.75;;;29.90;;
51943;SDS011;37969;53.132;6.370;2022-11-15T00:38:59;46.03;;;29.58;;
51943;SDS011;37969;53.132;6.370;2022-11-15T00:41:25;40.22;;;28.42;;
51943;SDS011;37969;53.132;6.370;2022-11-15T00:43:52;45.55;;;28.75;;
51943;SDS011;37969;53.132;6.370;2022-11-15T00:46:18;40.38;;;28.77;;
51943;SDS011;37969;53.132;6.370;2022-11-15T00:48:44;41.53;;;28.05;;
51943;SDS011;37969;53.132;6.370;2022-11-15T00:51:10;42.10;;;29.05;;
51943;SDS011;37969;53.132;6.370;2022-11-15T00:53:36;38.45;;;27.88;;
51943;SDS011;37969;53.132;6.370;2022-11-15T00:56:02;41.45;;;28.83;;
51943;SDS011;37969;53.132;6.370;2022-11-15T00:58:28;38.30;;;29.08;;
51943;SDS011;37969;53.132;6.370;2022-11-15T01:00:54;42.58;;;29.58;;
51943;SDS011;37969;53.132;6.370;2022-11-15T01:03:21;41.55;;;29.70;;
51943;SDS011;37969;53.132;6.370;2022-11-15T01:05:47;39.33;;;29.50;;
51943;SDS011;37969;53.132;6.370;2022-11-15T01:08:13;40.08;;;29.77;;
51943;SDS011;37969;53.132;6.370;2022-11-15T01:10:40;44.97;;;30.50;;
51943;SDS011;37969;53.132;6.370;2022-11-15T01:13:06;38.45;;;28.42;;
51943;SDS011;37969;53.132;6.370;2022-11-15T01:15:33;42.42;;;29.73;;
51943;SDS011;37969;53.132;6.370;2022-11-15T01:17:59;40.70;;;28.48;;
51943;SDS011;37969;53.132;6.370;2022-11-15T01:20:25;42.38;;;29.75;;
51943;SDS011;37969;53.132;6.370;2022-11-15T01:22:51;41.38;;;28.77;;
51943;SDS011;37969;53.132;6.370;2022-11-15T01:25:17;42.58;;;31.38;;
51943;SDS011;37969;53.132;6.370;2022-11-15T01:27:43;43.95;;;31.00;;
51943;SDS011;37969;53.132;6.370;2022-11-15T01:30:09;44.05;;;31.48;;
51943;SDS011;37969;53.132;6.370;2022-11-15T01:32:35;44.03;;;33.35;;
51943;SDS011;37969;53.132;6.370;2022-11-15T01:35:02;44.58;;;32.42;;
51943;SDS011;37969;53.132;6.370;2022-11-15T01:37:28;46.72;;;32.08;;
51943;SDS011;37969;53.132;6.370;2022-11-15T01:39:54;44.08;;;32.33;;
51943;SDS011;37969;53.132;6.370;2022-11-15T01:42:21;46.75;;;32.17;;
51943;SDS011;37969;53.132;6.370;2022-11-15T01:44:47;43.90;;;32.70;;
51943;SDS011;37969;53.132;6.370;2022-11-15T01:47:15;48.42;;;32.67;;
51943;SDS011;37969;53.132;6.370;2022-11-15T01:49:46;44.47;;;30.92;;
51943;SDS011;37969;53.132;6.370;2022-11-15T01:52:15;43.70;;;31.73;;
51943;SDS011;37969;53.132;6.370;2022-11-15T01:54:43;47.58;;;32.15;;
51943;SDS011;37969;53.132;6.370;2022-11-15T01:57:09;46.60;;;33.25;;
51943;SDS011;37969;53.132;6.370;2022-11-15T01:59:37;46.45;;;32.05;;
51943;SDS011;37969;53.132;6.370;2022-11-15T02:02:03;48.08;;;33.63;;
51943;SDS011;37969;53.132;6.370;2022-11-15T02:04:31;48.05;;;32.38;;
51943;SDS011;37969;53.132;6.370;2022-11-15T02:06:58;44.38;;;31.80;;
51943;SDS011;37969;53.132;6.370;2022-11-15T02:09:25;45.72;;;30.45;;
51943;SDS011;37969;53.132;6.370;2022-11-15T02:11:51;45.40;;;30.70;;
51943;SDS011;37969;53.132;6.370;2022-11-15T02:14:19;43.50;;;30.40;;
51943;SDS011;37969;53.132;6.370;2022-11-15T02:16:59;43.78;;;28.23;;
51943;SDS011;37969;53.132;6.370;2022-11-15T02:19:36;45.58;;;28.42;;
51943;SDS011;37969;53.132;6.370;2022-11-15T02:24:49;46.40;;;28.20;;
51943;SDS011;37969;53.132;6.370;2022-11-15T02:32:30;48.38;;;30.58;;
51943;SDS011;37969;53.132;6.370;2022-11-15T02:35:02;51.63;;;31.00;;
51943;SDS011;37969;53.132;6.370;2022-11-15T02:37:39;48.72;;;30.15;;
51943;SDS011;37969;53.132;6.370;2022-11-15T02:40:23;49.60;;;30.85;;
51943;SDS011;37969;53.132;6.370;2022-11-15T02:42:54;49.20;;;31.35;;
51943;SDS011;37969;53.132;6.370;2022-11-15T02:45:41;52.67;;;30.48;;
51943;SDS011;37969;53.132;6.370;2022-11-15T02:48:08;52.28;;;33.13;;
51943;SDS011;37969;53.132;6.370;2022-11-15T02:50:35;53.40;;;31.55;;
51943;SDS011;37969;53.132;6.370;2022-11-15T02:53:01;49.67;;;31.48;;
51943;SDS011;37969;53.132;6.370;2022-11-15T02:55:30;50.67;;;31.88;;
51943;SDS011;37969;53.132;6.370;2022-11-15T02:58:09;50.50;;;32.05;;
51943;SDS011;37969;53.132;6.370;2022-11-15T03:03:09;51.70;;;31.67;;
51943;SDS011;37969;53.132;6.370;2022-11-15T03:05:41;50.22;;;32.00;;
51943;SDS011;37969;53.132;6.370;2022-11-15T03:08:10;57.00;;;32.13;;
51943;SDS011;37969;53.132;6.370;2022-11-15T03:15:50;52.00;;;32.45;;
51943;SDS011;37969;53.132;6.370;2022-11-15T03:18:21;56.80;;;32.17;;
51943;SDS011;37969;53.132;6.370;2022-11-15T03:20:48;59.42;;;32.75;;
51943;SDS011;37969;53.132;6.370;2022-11-15T03:23:15;64.07;;;32.72;;
51943;SDS011;37969;53.132;6.370;2022-11-15T03:25:44;53.97;;;31.92;;
51943;SDS011;37969;53.132;6.370;2022-11-15T03:28:12;58.28;;;33.58;;
51943;SDS011;37969;53.132;6.370;2022-11-15T03:30:39;58.17;;;32.58;;
51943;SDS011;37969;53.132;6.370;2022-11-15T03:33:06;64.40;;;33.08;;
51943;SDS011;37969;53.132;6.370;2022-11-15T03:35:35;61.15;;;35.20;;
51943;SDS011;37969;53.132;6.370;2022-11-15T03:38:05;61.92;;;32.42;;
51943;SDS011;37969;53.132;6.370;2022-11-15T03:40:38;67.00;;;34.45;;
51943;SDS011;37969;53.132;6.370;2022-11-15T03:43:15;65.97;;;34.20;;
51943;SDS011;37969;53.132;6.370;2022-11-15T03:45:47;75.57;;;34.25;;
51943;SDS011;37969;53.132;6.370;2022-11-15T03:48:17;69.68;;;33.80;;
51943;SDS011;37969;53.132;6.370;2022-11-15T03:50:45;70.35;;;35.53;;
51943;SDS011;37969;53.132;6.370;2022-11-15T03:53:12;66.15;;;34.90;;
51943;SDS011;37969;53.132;6.370;2022-11-15T03:55:38;71.82;;;34.80;;
51943;SDS011;37969;53.132;6.370;2022-11-15T03:58:04;77.55;;;36.38;;
51943;SDS011;37969;53.132;6.370;2022-11-15T04:00:30;72.30;;;34.60;;
51943;SDS011;37969;53.132;6.370;2022-11-15T04:02:56;63.17;;;33.92;;
51943;SDS011;37969;53.132;6.370;2022-11-15T04:05:22;74.18;;;37.35;;
51943;SDS011;37969;53.132;6.370;2022-11-15T04:07:48;74.53;;;36.50;;
51943;SDS011;37969;53.132;6.370;2022-11-15T04:10:15;74.60;;;35.63;;
51943;SDS011;37969;53.132;6.370;2022-11-15T04:12:42;74.78;;;35.88;;
51943;SDS011;37969;53.132;6.370;2022-11-15T04:15:09;77.35;;;36.22;;
51943;SDS011;37969;53.132;6.370;2022-11-15T04:17:37;74.18;;;36.30;;
51943;SDS011;37969;53.132;6.370;2022-11-15T04:20:04;71.97;;;35.50;;
51943;SDS011;37969;53.132;6.370;2022-11-15T04:22:51;74.10;;;34.33;;
51943;SDS011;37969;53.132;6.370;2022-11-15T04:25:36;73.03;;;34.97;;
51943;SDS011;37969;53.132;6.370;2022-11-15T04:28:02;76.95;;;34.95;;
51943;SDS011;37969;53.132;6.370;2022-11-15T04:30:28;75.82;;;35.67;;
51943;SDS011;37969;53.132;6.370;2022-11-15T04:32:54;84.93;;;38.42;;
51943;SDS011;37969;53.132;6.370;2022-11-15T04:35:21;75.80;;;35.33;;
51943;SDS011;37969;53.132;6.370;2022-11-15T04:37:47;77.03;;;35.88;;
51943;SDS011;37969;53.132;6.370;2022-11-15T04:40:13;79.47;;;37.08;;
51943;SDS011;37969;53.132;6.370;2022-11-15T04:42:40;80.38;;;36.63;;
51943;SDS011;37969;53.132;6.370;2022-11-15T04:45:07;77.97;;;37.00;;
51943;SDS011;37969;53.132;6.370;2022-11-15T04:47:34;73.75;;;34.97;;
51943;SDS011;37969;53.132;6.370;2022-11-15T04:50:00;73.13;;;34.63;;
51943;SDS011;37969;53.132;6.370;2022-11-15T04:52:26;84.18;;;37.67;;
51943;SDS011;37969;53.132;6.370;2022-11-15T04:54:52;79.35;;;37.78;;
51943;SDS011;37969;53.132;6.370;2022-11-15T04:57:18;88.38;;;39.20;;
51943;SDS011;37969;53.132;6.370;2022-11-15T04:59:45;91.60;;;40.30;;
51943;SDS011;37969;53.132;6.370;2022-11-15T05:02:11;86.65;;;37.72;;
51943;SDS011;37969;53.132;6.370;2022-11-15T05:04:38;85.28;;;39.65;;
51943;SDS011;37969;53.132;6.370;2022-11-15T05:07:04;98.25;;;42.00;;
51943;SDS011;37969;53.132;6.370;2022-11-15T05:09:30;90.90;;;40.72;;
51943;SDS011;37969;53.132;6.370;2022-11-15T05:11:56;83.32;;;38.70;;
51943;SDS011;37969;53.132;6.370;2022-11-15T05:14:22;92.57;;;41.92;;
51943;SDS011;37969;53.132;6.370;2022-11-15T05:16:48;100.50;;;44.00;;
51943;SDS011;37969;53.132;6.370;2022-11-15T05:19:14;123.38;;;45.03;;
51943;SDS011;37969;53.132;6.370;2022-11-15T05:21:41;117.53;;;44.55;;
51943;SDS011;37969;53.132;6.370;2022-11-15T05:24:08;113.10;;;46.83;;
51943;SDS011;37969;53.132;6.370;2022-11-15T05:26:35;120.05;;;48.00;;
51943;SDS011;37969;53.132;6.370;2022-11-15T05:29:01;125.45;;;50.35;;
51943;SDS011;37969;53.132;6.370;2022-11-15T05:31:27;122.90;;;49.60;;
51943;SDS011;37969;53.132;6.370;2022-11-15T05:33:54;128.90;;;51.60;;
51943;SDS011;37969;53.132;6.370;2022-11-15T05:38:48;161.93;;;58.42;;
51943;SDS011;37969;53.132;6.370;2022-11-15T05:41:15;124.60;;;50.92;;
51943;SDS011;37969;53.132;6.370;2022-11-15T05:43:42;131.05;;;51.28;;
51943;SDS011;37969;53.132;6.370;2022-11-15T05:46:09;135.55;;;52.35;;
51943;SDS011;37969;53.132;6.370;2022-11-15T05:48:36;124.40;;;50.50;;
51943;SDS011;37969;53.132;6.370;2022-11-15T05:51:03;131.85;;;51.97;;
51943;SDS011;37969;53.132;6.370;2022-11-15T05:53:30;130.35;;;51.47;;
51943;SDS011;37969;53.132;6.370;2022-11-15T05:55:57;146.25;;;55.53;;
51943;SDS011;37969;53.132;6.370;2022-11-15T05:58:23;144.43;;;56.25;;
51943;SDS011;37969;53.132;6.370;2022-11-15T06:00:49;136.10;;;53.70;;
51943;SDS011;37969;53.132;6.370;2022-11-15T06:03:15;152.90;;;58.28;;
51943;SDS011;37969;53.132;6.370;2022-11-15T06:05:41;157.85;;;58.35;;
51943;SDS011;37969;53.132;6.370;2022-11-15T06:08:07;143.27;;;56.13;;
51943;SDS011;37969;53.132;6.370;2022-11-15T06:10:34;136.65;;;55.83;;
51943;SDS011;37969;53.132;6.370;2022-11-15T06:13:00;173.00;;;61.47;;
51943;SDS011;37969;53.132;6.370;2022-11-15T06:15:27;156.93;;;62.33;;
51943;SDS011;37969;53.132;6.370;2022-11-15T06:17:56;158.88;;;61.38;;
51943;SDS011;37969;53.132;6.370;2022-11-15T06:20:23;163.55;;;59.03;;
51943;SDS011;37969;53.132;6.370;2022-11-15T06:22:50;167.60;;;61.88;;
51943;SDS011;37969;53.132;6.370;2022-11-15T06:25:16;157.90;;;58.40;;
51943;SDS011;37969;53.132;6.370;2022-11-15T06:27:42;152.05;;;59.85;;
51943;SDS011;37969;53.132;6.370;2022-11-15T06:30:08;204.80;;;67.10;;
51943;SDS011;37969;53.132;6.370;2022-11-15T06:32:34;189.23;;;65.22;;
51943;SDS011;37969;53.132;6.370;2022-11-15T06:35:00;160.30;;;62.20;;
51943;SDS011;37969;53.132;6.370;2022-11-15T06:37:27;144.80;;;58.70;;
51943;SDS011;37969;53.132;6.370;2022-11-15T06:39:53;163.02;;;60.20;;
51943;SDS011;37969;53.132;6.370;2022-11-15T06:42:19;168.07;;;61.60;;
51943;SDS011;37969;53.132;6.370;2022-11-15T06:44:45;162.98;;;61.30;;
51943;SDS011;37969;53.132;6.370;2022-11-15T06:47:11;166.52;;;62.58;;
51943;SDS011;37969;53.132;6.370;2022-11-15T06:49:37;159.45;;;62.40;;
51943;SDS011;37969;53.132;6.370;2022-11-15T06:52:03;161.90;;;60.28;;
51943;SDS011;37969;53.132;6.370;2022-11-15T06:54:29;138.10;;;56.03;;
51943;SDS011;37969;53.132;6.370;2022-11-15T06:56:56;140.90;;;57.13;;
51943;SDS011;37969;53.132;6.370;2022-11-15T06:59:22;173.90;;;64.57;;
51943;SDS011;37969;53.132;6.370;2022-11-15T07:01:48;149.55;;;58.35;;
51943;SDS011;37969;53.132;6.370;2022-11-15T07:04:14;149.63;;;59.30;;
51943;SDS011;37969;53.132;6.370;2022-11-15T07:06:41;134.55;;;57.97;;
51943;SDS011;37969;53.132;6.370;2022-11-15T07:09:07;137.63;;;56.88;;
51943;SDS011;37969;53.132;6.370;2022-11-15T07:11:33;162.23;;;61.83;;
51943;SDS011;37969;53.132;6.370;2022-11-15T07:13:59;139.68;;;58.50;;
51943;SDS011;37969;53.132;6.370;2022-11-15T07:16:25;146.23;;;60.28;;
51943;SDS011;37969;53.132;6.370;2022-11-15T07:18:52;136.13;;;58.15;;
51943;SDS011;37969;53.132;6.370;2022-11-15T07:21:18;155.07;;;60.10;;
51943;SDS011;37969;53.132;6.370;2022-11-15T07:23:44;140.38;;;59.20;;
51943;SDS011;37969;53.132;6.370;2022-11-15T07:26:10;141.00;;;60.10;;
51943;SDS011;37969;53.132;6.370;2022-11-15T07:28:36;144.82;;;60.08;;
51943;SDS011;37969;53.132;6.370;2022-11-15T07:31:04;134.80;;;57.78;;
51943;SDS011;37969;53.132;6.370;2022-11-15T07:33:31;125.75;;;56.63;;
51943;SDS011;37969;53.132;6.370;2022-11-15T07:35:59;121.78;;;54.25;;
51943;SDS011;37969;53.132;6.370;2022-11-15T07:38:26;125.70;;;56.08;;
51943;SDS011;37969;53.132;6.370;2022-11-15T07:40:59;131.90;;;57.85;;
51943;SDS011;37969;53.132;6.370;2022-11-15T07:43:25;116.63;;;53.33;;
51943;SDS011;37969;53.132;6.370;2022-11-15T07:45:53;123.20;;;56.97;;
51943;SDS011;37969;53.132;6.370;2022-11-15T07:48:19;117.93;;;52.53;;
51943;SDS011;37969;53.132;6.370;2022-11-15T07:50:45;116.95;;;52.88;;
51943;SDS011;37969;53.132;6.370;2022-11-15T07:53:11;113.93;;;53.45;;
51943;SDS011;37969;53.132;6.370;2022-11-15T07:55:39;103.30;;;51.33;;
51943;SDS011;37969;53.132;6.370;2022-11-15T07:58:06;103.00;;;54.00;;
51943;SDS011;37969;53.132;6.370;2022-11-15T08:00:33;98.80;;;50.13;;
51943;SDS011;37969;53.132;6.370;2022-11-15T08:03:02;107.00;;;51.85;;
51943;SDS011;37969;53.132;6.370;2022-11-15T08:05:29;101.70;;;51.38;;
51943;SDS011;37969;53.132;6.370;2022-11-15T08:07:55;97.90;;;48.97;;
51943;SDS011;37969;53.132;6.370;2022-11-15T08:10:21;92.72;;;48.50;;
51943;SDS011;37969;53.132;6.370;2022-11-15T08:12:48;110.15;;;51.72;;
51943;SDS011;37969;53.132;6.370;2022-11-15T08:15:14;86.15;;;44.78;;
51943;SDS011;37969;53.132;6.370;2022-11-15T08:17:40;90.00;;;47.47;;
51943;SDS011;37969;53.132;6.370;2022-11-15T08:20:06;90.90;;;49.92;;
51943;SDS011;37969;53.132;6.370;2022-11-15T08:22:33;82.60;;;44.50;;
51943;SDS011;37969;53.132;6.370;2022-11-15T08:24:59;85.50;;;45.10;;
51943;SDS011;37969;53.132;6.370;2022-11-15T08:27:25;83.35;;;47.90;;
51943;SDS011;37969;53.132;6.370;2022-11-15T08:29:51;83.65;;;45.28;;
51943;SDS011;37969;53.132;6.370;2022-11-15T08:32:18;79.63;;;45.05;;
51943;SDS011;37969;53.132;6.370;2022-11-15T08:34:44;75.03;;;42.80;;
51943;SDS011;37969;53.132;6.370;2022-11-15T08:37:10;74.00;;;43.25;;
51943;SDS011;37969;53.132;6.370;2022-11-15T08:39:36;72.35;;;44.05;;
51943;SDS011;37969;53.132;6.370;2022-11-15T08:42:03;67.22;;;42.20;;
51943;SDS011;37969;53.132;6.370;2022-11-15T08:44:29;69.78;;;42.45;;
51943;SDS011;37969;53.132;6.370;2022-11-15T08:46:55;75.13;;;43.17;;
51943;SDS011;37969;53.132;6.370;2022-11-15T08:49:21;71.45;;;42.10;;
51943;SDS011;37969;53.132;6.370;2022-11-15T08:51:47;69.25;;;40.53;;
51943;SDS011;37969;53.132;6.370;2022-11-15T08:54:14;66.05;;;41.05;;
51943;SDS011;37969;53.132;6.370;2022-11-15T08:56:40;70.78;;;40.80;;
51943;SDS011;37969;53.132;6.370;2022-11-15T08:59:06;60.58;;;37.95;;
51943;SDS011;37969;53.132;6.370;2022-11-15T09:01:32;62.00;;;38.60;;
51943;SDS011;37969;53.132;6.370;2022-11-15T09:03:59;57.92;;;36.88;;
51943;SDS011;37969;53.132;6.370;2022-11-15T09:06:25;67.32;;;38.20;;
51943;SDS011;37969;53.132;6.370;2022-11-15T09:08:51;58.78;;;36.72;;
51943;SDS011;37969;53.132;6.370;2022-11-15T09:11:17;60.78;;;39.00;;
51943;SDS011;37969;53.132;6.370;2022-11-15T09:13:45;64.38;;;37.58;;
51943;SDS011;37969;53.132;6.370;2022-11-15T09:16:11;57.92;;;37.55;;
51943;SDS011;37969;53.132;6.370;2022-11-15T09:18:37;59.65;;;36.25;;
51943;SDS011;37969;53.132;6.370;2022-11-15T09:21:04;59.58;;;36.05;;
51943;SDS011;37969;53.132;6.370;2022-11-15T09:23:30;56.75;;;35.53;;
51943;SDS011;37969;53.132;6.370;2022-11-15T09:25:58;53.38;;;33.63;;
51943;SDS011;37969;53.132;6.370;2022-11-15T09:28:25;57.75;;;34.58;;
51943;SDS011;37969;53.132;6.370;2022-11-15T09:30:51;50.75;;;32.15;;
51943;SDS011;37969;53.132;6.370;2022-11-15T09:33:17;52.33;;;33.58;;
51943;SDS011;37969;53.132;6.370;2022-11-15T09:35:43;44.38;;;31.38;;
51943;SDS011;37969;53.132;6.370;2022-11-15T09:38:09;52.00;;;33.33;;
51943;SDS011;37969;53.132;6.370;2022-11-15T09:40:36;50.50;;;33.40;;
51943;SDS011;37969;53.132;6.370;2022-11-15T09:43:14;49.90;;;32.22;;
51943;SDS011;37969;53.132;6.370;2022-11-15T09:45:52;51.67;;;31.80;;
51943;SDS011;37969;53.132;6.370;2022-11-15T09:48:30;50.50;;;31.10;;
51943;SDS011;37969;53.132;6.370;2022-11-15T09:50:59;51.47;;;30.85;;
51943;SDS011;37969;53.132;6.370;2022-11-15T09:53:26;44.92;;;32.35;;
51943;SDS011;37969;53.132;6.370;2022-11-15T09:56:00;50.92;;;31.23;;
51943;SDS011;37969;53.132;6.370;2022-11-15T09:58:37;47.80;;;31.30;;
51943;SDS011;37969;53.132;6.370;2022-11-15T10:01:07;49.53;;;30.90;;
51943;SDS011;37969;53.132;6.370;2022-11-15T10:03:37;44.92;;;29.85;;
51943;SDS011;37969;53.132;6.370;2022-11-15T10:06:09;40.53;;;29.33;;
51943;SDS011;37969;53.132;6.370;2022-11-15T10:08:40;45.08;;;28.95;;
51943;SDS011;37969;53.132;6.370;2022-11-15T10:11:10;43.05;;;28.65;;
51943;SDS011;37969;53.132;6.370;2022-11-15T10:13:39;45.20;;;29.83;;
51943;SDS011;37969;53.132;6.370;2022-11-15T10:21:14;46.63;;;29.67;;
51943;SDS011;37969;53.132;6.370;2022-11-15T10:23:41;43.28;;;28.48;;
51943;SDS011;37969;53.132;6.370;2022-11-15T10:26:08;39.00;;;26.60;;
51943;SDS011;37969;53.132;6.370;2022-11-15T10:28:35;42.30;;;26.20;;
51943;SDS011;37969;53.132;6.370;2022-11-15T10:31:01;38.38;;;25.63;;
51943;SDS011;37969;53.132;6.370;2022-11-15T10:41:15;37.38;;;25.42;;
51943;SDS011;37969;53.132;6.370;2022-11-15T10:43:42;33.13;;;25.05;;
51943;SDS011;37969;53.132;6.370;2022-11-15T10:46:19;37.22;;;23.90;;
51943;SDS011;37969;53.132;6.370;2022-11-15T10:48:46;34.67;;;23.20;;
51943;SDS011;37969;53.132;6.370;2022-11-15T10:51:20;32.13;;;23.25;;
51943;SDS011;37969;53.132;6.370;2022-11-15T10:53:47;33.45;;;23.13;;
51943;SDS011;37969;53.132;6.370;2022-11-15T10:56:14;34.75;;;21.40;;
51943;SDS011;37969;53.132;6.370;2022-11-15T10:58:42;28.17;;;20.67;;
51943;SDS011;37969;53.132;6.370;2022-11-15T11:01:11;27.63;;;20.33;;
51943;SDS011;37969;53.132;6.370;2022-11-15T11:03:38;28.80;;;20.73;;
51943;SDS011;37969;53.132;6.370;2022-11-15T11:06:05;27.55;;;19.70;;
51943;SDS011;37969;53.132;6.370;2022-11-15T11:08:32;29.65;;;19.85;;
51943;SDS011;37969;53.132;6.370;2022-11-15T11:11:00;25.25;;;18.17;;
51943;SDS011;37969;53.132;6.370;2022-11-15T11:13:27;24.80;;;17.83;;
51943;SDS011;37969;53.132;6.370;2022-11-15T11:16:16;25.75;;;17.55;;
51943;SDS011;37969;53.132;6.370;2022-11-15T11:18:48;21.40;;;15.93;;
51943;SDS011;37969;53.132;6.370;2022-11-15T11:21:48;20.25;;;16.45;;
51943;SDS011;37969;53.132;6.370;2022-11-15T11:26:42;25.10;;;15.40;;
51943;SDS011;37969;53.132;6.370;2022-11-15T11:31:59;19.38;;;13.55;;
51943;SDS011;37969;53.132;6.370;2022-11-15T11:37:20;15.88;;;12.35;;
51943;SDS011;37969;53.132;6.370;2022-11-15T11:39:59;18.95;;;12.38;;
51943;SDS011;37969;53.132;6.370;2022-11-15T11:42:47;15.48;;;10.35;;
51943;SDS011;37969;53.132;6.370;2022-11-15T11:45:16;9.68;;;8.27;;
51943;SDS011;37969;53.132;6.370;2022-11-15T11:47:51;11.00;;;8.18;;
51943;SDS011;37969;53.132;6.370;2022-11-15T11:50:21;11.23;;;7.75;;
51943;SDS011;37969;53.132;6.370;2022-11-15T11:58:17;11.18;;;5.60;;
51943;SDS011;37969;53.132;6.370;2022-11-15T12:00:47;9.27;;;5.25;;
51943;SDS011;37969;53.132;6.370;2022-11-15T12:03:28;8.68;;;5.28;;
51943;SDS011;37969;53.132;6.370;2022-11-15T12:10:57;5.78;;;3.75;;
51943;SDS011;37969;53.132;6.370;2022-11-15T12:13:25;8.85;;;3.97;;
51943;SDS011;37969;53.132;6.370;2022-11-15T12:16:00;6.32;;;3.58;;
51943;SDS011;37969;53.132;6.370;2022-11-15T12:18:29;17.85;;;4.50;;
51943;SDS011;37969;53.132;6.370;2022-11-15T12:20:57;7.55;;;3.50;;
51943;SDS011;37969;53.132;6.370;2022-11-15T12:23:26;8.25;;;4.22;;
51943;SDS011;37969;53.132;6.370;2022-11-15T12:25:55;8.40;;;3.63;;
51943;SDS011;37969;53.132;6.370;2022-11-15T12:28:28;5.68;;;3.70;;
51943;SDS011;37969;53.132;6.370;2022-11-15T12:31:03;7.65;;;3.65;;
51943;SDS011;37969;53.132;6.370;2022-11-15T12:33:31;7.78;;;3.90;;
51943;SDS011;37969;53.132;6.370;2022-11-15T12:36:00;6.13;;;4.00;;
51943;SDS011;37969;53.132;6.370;2022-11-15T12:43:38;8.40;;;4.13;;
51943;SDS011;37969;53.132;6.370;2022-11-15T12:46:05;13.75;;;4.63;;
51943;SDS011;37969;53.132;6.370;2022-11-15T12:51:03;10.60;;;4.72;;
51943;SDS011;37969;53.132;6.370;2022-11-15T12:53:30;8.82;;;3.92;;
51943;SDS011;37969;53.132;6.370;2022-11-15T12:58:41;9.07;;;4.90;;
51943;SDS011;37969;53.132;6.370;2022-11-15T13:01:08;7.57;;;4.03;;
51943;SDS011;37969;53.132;6.370;2022-11-15T13:03:34;10.90;;;4.55;;
51943;SDS011;37969;53.132;6.370;2022-11-15T13:06:03;13.02;;;3.88;;
51943;SDS011;37969;53.132;6.370;2022-11-15T13:08:37;8.25;;;4.45;;
51943;SDS011;37969;53.132;6.370;2022-11-15T13:13:53;5.78;;;3.63;;
51943;SDS011;37969;53.132;6.370;2022-11-15T13:16:20;9.43;;;4.40;;
51943;SDS011;37969;53.132;6.370;2022-11-15T13:18:53;6.53;;;3.83;;
51943;SDS011;37969;53.132;6.370;2022-11-15T13:21:21;5.55;;;3.22;;
51943;SDS011;37969;53.132;6.370;2022-11-15T13:24:10;10.48;;;3.80;;
51943;SDS011;37969;53.132;6.370;2022-11-15T13:26:37;7.57;;;3.63;;
51943;SDS011;37969;53.132;6.370;2022-11-15T13:29:04;4.72;;;3.33;;
51943;SDS011;37969;53.132;6.370;2022-11-15T13:31:40;6.97;;;3.25;;
51943;SDS011;37969;53.132;6.370;2022-11-15T13:34:16;4.78;;;2.63;;
51943;SDS011;37969;53.132;6.370;2022-11-15T13:36:43;8.23;;;3.17;;
51943;SDS011;37969;53.132;6.370;2022-11-15T13:39:14;8.80;;;3.15;;
51943;SDS011;37969;53.132;6.370;2022-11-15T13:41:49;7.05;;;3.03;;
51943;SDS011;37969;53.132;6.370;2022-11-15T13:44:20;6.70;;;2.42;;
51943;SDS011;37969;53.132;6.370;2022-11-15T13:46:47;6.85;;;2.90;;
51943;SDS011;37969;53.132;6.370;2022-11-15T13:49:13;3.92;;;2.33;;
51943;SDS011;37969;53.132;6.370;2022-11-15T13:54:18;12.20;;;3.85;;
51943;SDS011;37969;53.132;6.370;2022-11-15T13:56:52;6.50;;;3.08;;
51943;SDS011;37969;53.132;6.370;2022-11-15T13:59:25;5.75;;;3.28;;
51943;SDS011;37969;53.132;6.370;2022-11-15T14:01:54;7.82;;;3.10;;
51943;SDS011;37969;53.132;6.370;2022-11-15T14:04:21;6.50;;;3.15;;
51943;SDS011;37969;53.132;6.370;2022-11-15T14:06:50;7.35;;;3.05;;
51943;SDS011;37969;53.132;6.370;2022-11-15T14:11:49;3.58;;;1.92;;
51943;SDS011;37969;53.132;6.370;2022-11-15T14:14:19;5.45;;;2.13;;
51943;SDS011;37969;53.132;6.370;2022-11-15T14:16:47;5.60;;;2.20;;
51943;SDS011;37969;53.132;6.370;2022-11-15T14:24:30;4.32;;;1.70;;
51943;SDS011;37969;53.132;6.370;2022-11-15T14:26:57;2.80;;;1.63;;
51943;SDS011;37969;53.132;6.370;2022-11-15T14:29:26;3.65;;;1.60;;
51943;SDS011;37969;53.132;6.370;2022-11-15T14:31:53;4.20;;;1.95;;
51943;SDS011;37969;53.132;6.370;2022-11-15T14:34:20;6.32;;;2.15;;
51943;SDS011;37969;53.132;6.370;2022-11-15T14:36:47;7.85;;;2.22;;
51943;SDS011;37969;53.132;6.370;2022-11-15T14:39:13;4.35;;;2.00;;
51943;SDS011;37969;53.132;6.370;2022-11-15T14:41:39;5.43;;;2.17;;
51943;SDS011;37969;53.132;6.370;2022-11-15T14:44:05;3.75;;;1.92;;
51943;SDS011;37969;53.132;6.370;2022-11-15T14:46:32;5.20;;;2.08;;
51943;SDS011;37969;53.132;6.370;2022-11-15T14:48:58;4.18;;;1.60;;
51943;SDS011;37969;53.132;6.370;2022-11-15T14:51:24;3.13;;;1.63;;
51943;SDS011;37969;53.132;6.370;2022-11-15T14:53:51;3.33;;;1.70;;
51943;SDS011;37969;53.132;6.370;2022-11-15T14:56:17;2.70;;;2.03;;
51943;SDS011;37969;53.132;6.370;2022-11-15T14:58:43;4.40;;;2.20;;
51943;SDS011;37969;53.132;6.370;2022-11-15T15:01:12;2.83;;;2.05;;
51943;SDS011;37969;53.132;6.370;2022-11-15T15:03:38;3.75;;;1.83;;
51943;SDS011;37969;53.132;6.370;2022-11-15T15:06:05;5.43;;;1.73;;
51943;SDS011;37969;53.132;6.370;2022-11-15T15:08:31;4.95;;;2.40;;
51943;SDS011;37969;53.132;6.370;2022-11-15T15:10:57;3.67;;;2.08;;
51943;SDS011;37969;53.132;6.370;2022-11-15T15:13:23;4.22;;;1.73;;
51943;SDS011;37969;53.132;6.370;2022-11-15T15:15:50;4.13;;;1.42;;
51943;SDS011;37969;53.132;6.370;2022-11-15T15:18:16;4.22;;;1.38;;
51943;SDS011;37969;53.132;6.370;2022-11-15T15:20:43;5.50;;;1.80;;
51943;SDS011;37969;53.132;6.370;2022-11-15T15:23:15;3.42;;;1.58;;
51943;SDS011;37969;53.132;6.370;2022-11-15T15:25:42;4.97;;;1.60;;
51943;SDS011;37969;53.132;6.370;2022-11-15T15:28:08;4.20;;;1.85;;
51943;SDS011;37969;53.132;6.370;2022-11-15T15:30:34;4.32;;;2.25;;
51943;SDS011;37969;53.132;6.370;2022-11-15T15:33:01;2.53;;;1.83;;
51943;SDS011;37969;53.132;6.370;2022-11-15T15:35:28;2.90;;;2.35;;
51943;SDS011;37969;53.132;6.370;2022-11-15T15:37:55;7.18;;;2.60;;
51943;SDS011;37969;53.132;6.370;2022-11-15T15:40:22;4.85;;;2.45;;
51943;SDS011;37969;53.132;6.370;2022-11-15T15:42:49;3.20;;;2.38;;
51943;SDS011;37969;53.132;6.370;2022-11-15T15:45:16;4.70;;;2.75;;